createdAt,value
2022-11-24T00:01:11.004Z,92.29
2022-11-24T00:03:39.190Z,90.80
2022-11-24T00:06:08.568Z,91.51
2022-11-24T00:08:36.829Z,91.19
2022-11-24T00:11:06.144Z,91.97
2022-11-24T00:13:33.972Z,90.55
2022-11-24T00:16:11.210Z,89.26
2022-11-24T00:18:39.343Z,90.85
2022-11-24T00:21:07.236Z,89.91
2022-11-24T00:23:35.442Z,89.90
2022-11-24T00:26:07.647Z,89.95
2022-11-24T00:28:36.117Z,89.77
2022-11-24T00:31:05.122Z,91.22
2022-11-24T00:33:34.005Z,91.27
2022-11-24T00:36:01.941Z,93.32
2022-11-24T00:38:29.356Z,91.69
2022-11-24T00:40:56.767Z,91.09
2022-11-24T00:43:24.232Z,92.94
2022-11-24T00:45:51.725Z,91.59
2022-11-24T00:48:19.221Z,89.89
2022-11-24T00:50:56.463Z,90.40
2022-11-24T00:53:23.861Z,90.50
2022-11-24T00:55:51.491Z,91.19
2022-11-24T00:58:18.972Z,91.21
2022-11-24T01:00:46.408Z,88.93
2022-11-24T01:03:13.807Z,88.74
2022-11-24T01:05:41.668Z,88.61
2022-11-24T01:08:11.138Z,93.14
2022-11-24T01:10:38.774Z,92.10
2022-11-24T01:13:06.434Z,91.19
2022-11-24T01:15:35.893Z,88.24
2022-11-24T01:18:04.041Z,88.06
2022-11-24T01:20:31.531Z,89.73
2022-11-24T01:22:58.931Z,89.27
2022-11-24T01:25:27.713Z,88.42
2022-11-24T01:27:55.107Z,86.75
2022-11-24T01:30:23.096Z,86.69
2022-11-24T01:32:50.454Z,87.95
2022-11-24T01:35:17.903Z,88.20
2022-11-24T01:37:45.279Z,93.32
2022-11-24T01:40:13.239Z,93.03
2022-11-24T01:42:47.413Z,92.56
2022-11-24T01:45:32.205Z,89.58
2022-11-24T01:48:01.956Z,89.04
2022-11-24T01:50:29.640Z,88.46
2022-11-24T01:52:58.002Z,88.21
2022-11-24T01:55:30.722Z,88.80
2022-11-24T01:58:03.408Z,87.90
2022-11-24T02:00:30.832Z,87.70
2022-11-24T02:02:59.470Z,88.52
2022-11-24T02:05:31.606Z,98.37
2022-11-24T02:08:03.003Z,100.00
2022-11-24T02:10:30.922Z,93.83
2022-11-24T02:13:00.633Z,87.00
2022-11-24T02:15:29.416Z,82.75
2022-11-24T02:17:56.873Z,88.24
2022-11-24T02:20:24.229Z,87.12
2022-11-24T02:22:56.221Z,77.73
2022-11-24T02:25:31.842Z,82.89
2022-11-24T02:28:02.572Z,80.61
2022-11-24T02:30:30.042Z,82.06
2022-11-24T02:33:05.817Z,85.77
2022-11-24T02:35:34.198Z,87.01
2022-11-24T02:38:01.601Z,86.96
2022-11-24T02:40:30.994Z,86.48
2022-11-24T02:43:05.018Z,92.14
2022-11-24T02:45:32.764Z,89.88
2022-11-24T02:48:00.248Z,91.92
2022-11-24T02:50:27.639Z,90.71
2022-11-24T02:52:55.070Z,92.12
2022-11-24T02:55:23.504Z,90.28
2022-11-24T02:57:50.911Z,91.39
2022-11-24T03:00:20.685Z,91.56
2022-11-24T03:02:48.196Z,92.18
2022-11-24T03:05:15.894Z,92.14
2022-11-24T03:07:43.339Z,89.02
2022-11-24T03:10:10.910Z,89.73
2022-11-24T03:12:38.300Z,89.43
2022-11-24T03:15:07.066Z,89.35
2022-11-24T03:17:36.068Z,89.21
2022-11-24T03:20:05.124Z,87.55
2022-11-24T03:22:32.965Z,87.58
2022-11-24T03:25:00.992Z,88.10
2022-11-24T03:27:28.377Z,87.75
2022-11-24T03:29:56.021Z,88.06
2022-11-24T03:32:23.847Z,88.22
2022-11-24T03:34:52.668Z,89.91
2022-11-24T03:37:20.111Z,88.65
2022-11-24T03:39:47.527Z,90.61
2022-11-24T03:42:14.935Z,90.02
2022-11-24T03:44:42.377Z,93.26
2022-11-24T03:47:10.392Z,94.31
2022-11-24T03:49:37.821Z,97.93
2022-11-24T03:52:08.404Z,95.15
2022-11-24T03:54:36.179Z,93.77
2022-11-24T03:57:03.763Z,90.19
2022-11-24T03:59:31.163Z,90.85
2022-11-24T04:01:58.613Z,91.12
2022-11-24T04:04:26.078Z,90.19
2022-11-24T04:06:53.462Z,89.06
2022-11-24T04:09:22.184Z,89.69
2022-11-24T04:12:06.962Z,89.83
2022-11-24T04:14:34.835Z,89.22
2022-11-24T04:17:04.165Z,89.04
2022-11-24T04:19:31.635Z,89.42
2022-11-24T04:21:59.083Z,90.43
2022-11-24T04:24:27.799Z,89.38
2022-11-24T04:26:55.428Z,91.19
2022-11-24T04:29:23.125Z,89.52
2022-11-24T04:31:50.591Z,91.41
2022-11-24T04:34:18.014Z,92.79
2022-11-24T04:36:45.389Z,91.79
2022-11-24T04:39:24.845Z,91.73
2022-11-24T04:41:54.929Z,90.91
2022-11-24T04:44:22.380Z,89.26
2022-11-24T04:46:49.909Z,88.70
2022-11-24T04:49:17.632Z,88.61
2022-11-24T04:51:45.276Z,87.74
2022-11-24T04:54:14.249Z,86.94
2022-11-24T04:56:42.470Z,89.57
2022-11-24T04:59:14.728Z,88.46
2022-11-24T05:01:42.468Z,88.91
2022-11-24T05:04:11.425Z,87.54
2022-11-24T05:06:38.955Z,87.47
2022-11-24T05:09:09.315Z,87.59
2022-11-24T05:11:35.799Z,87.13
2022-11-24T05:14:03.219Z,87.40
2022-11-24T05:16:32.030Z,89.93
2022-11-24T05:18:59.514Z,89.36
2022-11-24T05:21:26.895Z,91.93
2022-11-24T05:23:54.313Z,89.40
2022-11-24T05:26:22.315Z,88.47
2022-11-24T05:28:49.751Z,88.94
2022-11-24T05:31:17.196Z,88.39
2022-11-24T05:33:46.041Z,89.18
2022-11-24T05:36:33.998Z,89.99
2022-11-24T05:39:02.101Z,88.52
2022-11-24T05:41:29.461Z,88.07
2022-11-24T05:43:56.844Z,88.78
2022-11-24T05:46:24.301Z,89.78
2022-11-24T05:48:53.016Z,88.32
2022-11-24T05:51:20.440Z,89.88
2022-11-24T05:53:47.870Z,89.45
2022-11-24T05:56:15.271Z,88.52
2022-11-24T05:58:43.541Z,86.52
2022-11-24T06:01:11.038Z,88.61
2022-11-24T06:03:38.418Z,88.84
2022-11-24T06:06:07.680Z,86.79
2022-11-24T06:08:35.089Z,86.08
2022-11-24T06:11:17.110Z,86.70
2022-11-24T06:13:45.432Z,86.26
2022-11-24T06:16:13.598Z,85.93
2022-11-24T06:18:41.726Z,85.53
2022-11-24T06:21:11.921Z,87.17
2022-11-24T06:23:40.254Z,86.11
2022-11-24T06:26:09.158Z,88.78
2022-11-24T06:28:36.716Z,86.78
2022-11-24T06:31:05.323Z,89.06
2022-11-24T06:33:34.235Z,87.56
2022-11-24T06:36:03.527Z,85.23
2022-11-24T06:38:32.665Z,86.81
2022-11-24T06:41:01.482Z,87.37
2022-11-24T06:43:29.038Z,89.59
2022-11-24T06:45:56.624Z,89.33
2022-11-24T06:48:24.488Z,88.64
2022-11-24T06:50:52.009Z,86.77
2022-11-24T06:53:19.962Z,86.55
2022-11-24T06:55:48.749Z,85.80
2022-11-24T06:58:16.173Z,84.43
2022-11-24T07:00:44.601Z,84.36
2022-11-24T07:03:16.883Z,85.34
2022-11-24T07:05:44.526Z,86.20
2022-11-24T07:08:17.438Z,85.86
2022-11-24T07:10:45.491Z,86.17
2022-11-24T07:13:14.223Z,85.59
2022-11-24T07:15:41.650Z,85.62
2022-11-24T07:18:09.111Z,85.26
2022-11-24T07:20:36.520Z,87.11
2022-11-24T07:23:03.943Z,87.57
2022-11-24T07:25:31.413Z,86.49
2022-11-24T07:27:59.226Z,85.78
2022-11-24T07:30:29.011Z,86.77
2022-11-24T07:33:00.010Z,86.74
2022-11-24T07:35:27.707Z,84.83
2022-11-24T07:37:56.073Z,83.99
2022-11-24T07:40:23.979Z,83.92
2022-11-24T07:42:51.422Z,85.26
2022-11-24T07:45:18.793Z,84.67
2022-11-24T07:47:47.581Z,85.38
2022-11-24T07:50:15.171Z,86.24
2022-11-24T07:52:42.614Z,87.25
2022-11-24T07:55:10.694Z,85.95
2022-11-24T07:57:38.184Z,86.70
2022-11-24T08:00:06.642Z,87.20
2022-11-24T08:02:34.699Z,86.72
2022-11-24T08:05:03.380Z,85.70
2022-11-24T08:07:30.872Z,84.07
2022-11-24T08:09:58.314Z,84.96
2022-11-24T08:12:25.747Z,84.95
2022-11-24T08:14:53.153Z,85.70
2022-11-24T08:17:20.852Z,86.52
2022-11-24T08:19:48.302Z,87.81
2022-11-24T08:22:17.051Z,85.45
2022-11-24T08:24:47.598Z,85.22
2022-11-24T08:27:16.454Z,84.55
2022-11-24T08:29:44.212Z,84.68
2022-11-24T08:32:15.059Z,85.47
2022-11-24T08:34:44.864Z,85.61
2022-11-24T08:37:12.438Z,84.93
2022-11-24T08:39:41.238Z,85.55
2022-11-24T08:42:08.672Z,84.85
2022-11-24T08:44:36.652Z,84.87
2022-11-24T08:47:04.423Z,86.04
2022-11-24T08:49:31.823Z,84.61
2022-11-24T08:51:59.221Z,90.15
2022-11-24T08:54:27.495Z,88.65
2022-11-24T08:56:56.249Z,85.80
2022-11-24T08:59:23.786Z,86.60
2022-11-24T09:01:51.280Z,86.45
2022-11-24T09:04:18.762Z,85.90
2022-11-24T09:06:46.152Z,84.38
2022-11-24T09:09:13.748Z,84.50
2022-11-24T09:11:41.159Z,84.33
2022-11-24T09:14:09.907Z,84.71
2022-11-24T09:16:37.666Z,82.83
2022-11-24T09:19:07.992Z,83.82
2022-11-24T09:21:37.710Z,84.86
2022-11-24T09:24:07.296Z,87.16
2022-11-24T09:26:36.917Z,88.07
2022-11-24T09:29:07.946Z,87.95
2022-11-24T09:31:39.180Z,90.75
2022-11-24T09:34:08.535Z,89.00
2022-11-24T09:36:36.700Z,86.29
2022-11-24T09:39:04.655Z,84.96
2022-11-24T09:41:51.980Z,84.26
2022-11-24T09:44:38.917Z,83.44
2022-11-24T09:47:17.558Z,82.58
2022-11-24T09:49:51.903Z,83.59
2022-11-24T09:52:23.955Z,83.01
2022-11-24T09:54:56.348Z,82.75
2022-11-24T09:57:28.679Z,82.82
2022-11-24T10:00:04.892Z,81.94
2022-11-24T10:02:33.733Z,90.36
2022-11-24T10:05:01.226Z,84.89
2022-11-24T10:07:31.769Z,82.92
2022-11-24T10:10:05.356Z,82.81
2022-11-24T10:12:48.641Z,86.60
2022-11-24T10:15:42.393Z,83.12
2022-11-24T10:18:38.854Z,81.95
2022-11-24T10:21:23.456Z,81.69
2022-11-24T10:24:09.807Z,83.02
2022-11-24T10:26:39.010Z,98.12
2022-11-24T10:29:20.097Z,91.62
2022-11-24T10:31:50.979Z,86.90
2022-11-24T10:34:24.176Z,78.14
2022-11-24T10:36:59.039Z,72.90
2022-11-24T10:39:33.416Z,72.64
2022-11-24T10:42:06.693Z,78.53
2022-11-24T10:44:34.527Z,79.55
2022-11-24T10:47:02.391Z,76.92
2022-11-24T10:49:34.247Z,72.99
2022-11-24T10:52:07.678Z,72.73
2022-11-24T10:54:36.800Z,75.66
2022-11-24T10:57:04.497Z,75.89
2022-11-24T10:59:38.712Z,76.59
2022-11-24T11:02:31.750Z,78.37
2022-11-24T11:05:37.922Z,78.04
2022-11-24T11:08:27.374Z,78.67
2022-11-24T11:11:14.904Z,79.08
2022-11-24T11:13:51.986Z,81.92
2022-11-24T11:16:35.557Z,81.47
2022-11-24T11:19:20.292Z,79.55
2022-11-24T11:22:02.015Z,79.36
2022-11-24T11:24:29.752Z,82.83
2022-11-24T11:27:01.594Z,80.69
2022-11-24T11:35:12.510Z,81.74
2022-11-24T11:37:41.437Z,80.10
2022-11-24T11:40:15.627Z,79.79
2022-11-24T11:43:04.224Z,83.32
2022-11-24T11:45:36.411Z,82.49
2022-11-24T11:48:21.053Z,81.80
2022-11-24T11:53:59.498Z,81.58
2022-11-24T11:56:29.280Z,81.40
2022-11-24T11:59:10.789Z,82.68
2022-11-24T12:01:53.554Z,79.60
2022-11-24T12:04:31.869Z,80.14
2022-11-24T12:07:34.622Z,80.65
2022-11-24T12:10:12.209Z,79.90
2022-11-24T12:13:04.481Z,80.10
2022-11-24T12:15:37.502Z,80.18
2022-11-24T12:18:40.314Z,79.61
2022-11-24T12:21:13.055Z,80.62
2022-11-24T12:23:53.975Z,80.82
2022-11-24T12:26:33.027Z,79.99
2022-11-24T12:29:15.291Z,80.15
2022-11-24T12:31:51.922Z,79.84
2022-11-24T12:34:31.006Z,79.43
2022-11-24T12:37:16.042Z,78.36
2022-11-24T12:39:53.846Z,77.84
2022-11-24T12:42:35.155Z,78.88
2022-11-24T12:45:13.980Z,79.66
2022-11-24T12:48:00.383Z,80.26
2022-11-24T12:50:30.296Z,82.30
2022-11-24T12:53:03.394Z,81.78
2022-11-24T12:55:33.637Z,79.32
2022-11-24T12:58:11.591Z,81.70
2022-11-24T13:00:52.867Z,81.86
2022-11-24T13:03:35.651Z,80.96
2022-11-24T13:06:12.543Z,80.27
2022-11-24T13:08:40.640Z,81.67
2022-11-24T13:11:38.345Z,80.48
2022-11-24T13:14:13.374Z,79.30
2022-11-24T13:17:27.965Z,79.32
2022-11-24T13:19:44.163Z,80.01
2022-11-24T13:22:16.871Z,79.87
2022-11-24T13:24:45.319Z,80.18
2022-11-24T13:27:41.666Z,79.53
2022-11-24T13:30:58.901Z,79.89
2022-11-24T13:33:35.206Z,79.91
2022-11-24T13:36:32.711Z,84.31
2022-11-24T13:39:01.645Z,81.37
2022-11-24T13:42:43.767Z,83.13
2022-11-24T13:45:00.382Z,82.28
2022-11-24T13:47:39.953Z,79.26
2022-11-24T13:50:11.390Z,78.97
2022-11-24T13:52:43.480Z,79.56
2022-11-24T13:55:23.491Z,81.18
2022-11-24T13:57:52.613Z,80.13
2022-11-24T14:00:22.192Z,80.16
2022-11-24T14:02:50.044Z,78.91
2022-11-24T14:05:22.572Z,81.32
2022-11-24T14:07:52.983Z,80.39
2022-11-24T14:10:27.067Z,80.30
2022-11-24T14:13:33.056Z,79.98
2022-11-24T14:16:02.411Z,79.25
2022-11-24T14:18:30.139Z,79.74
2022-11-24T14:21:01.015Z,81.20
2022-11-24T14:23:28.669Z,79.37
2022-11-24T14:25:56.050Z,80.13
2022-11-24T14:28:26.361Z,81.58
2022-11-24T14:31:08.637Z,80.71
2022-11-24T14:33:36.555Z,80.91
2022-11-24T14:36:05.906Z,80.35
2022-11-24T14:38:33.325Z,80.21
2022-11-24T14:41:17.184Z,80.25
2022-11-24T14:43:44.685Z,81.52
2022-11-24T14:46:19.718Z,80.40
2022-11-24T14:48:49.503Z,81.21
2022-11-24T14:51:22.243Z,81.85
2022-11-24T14:53:52.195Z,80.21
2022-11-24T14:56:25.202Z,81.67
2022-11-24T14:58:53.093Z,81.95
2022-11-24T15:01:29.130Z,81.39
2022-11-24T15:04:26.472Z,82.43
2022-11-24T15:07:07.661Z,81.48
2022-11-24T15:09:39.698Z,80.16
2022-11-24T15:12:09.546Z,81.90
2022-11-24T15:14:49.742Z,81.90
2022-11-24T15:17:19.542Z,82.57
2022-11-24T15:19:51.342Z,82.34
2022-11-24T15:22:35.256Z,82.06
2022-11-24T15:25:03.867Z,82.03
2022-11-24T15:27:31.310Z,82.14
2022-11-24T15:29:58.693Z,82.30
2022-11-24T15:32:26.127Z,83.68
2022-11-24T15:34:53.500Z,83.14
2022-11-24T15:37:20.912Z,83.02
2022-11-24T15:39:49.607Z,82.96
2022-11-24T15:42:16.972Z,82.52
2022-11-24T15:44:44.376Z,81.87
2022-11-24T15:47:11.826Z,81.68
2022-11-24T15:49:39.298Z,83.85
2022-11-24T15:52:06.864Z,82.51
2022-11-24T15:54:34.713Z,82.87
2022-11-24T15:57:03.669Z,82.44
2022-11-24T15:59:31.190Z,81.67
2022-11-24T16:01:58.621Z,82.24
2022-11-24T16:04:26.099Z,82.90
2022-11-24T16:06:53.472Z,82.51
2022-11-24T16:09:20.938Z,82.46
2022-11-24T16:11:48.360Z,83.18
2022-11-24T16:14:17.135Z,82.89
2022-11-24T16:16:44.705Z,82.54
2022-11-24T16:19:12.392Z,83.43
2022-11-24T16:21:41.151Z,83.08
2022-11-24T16:24:08.930Z,82.39
2022-11-24T16:26:36.332Z,83.34
2022-11-24T16:29:04.194Z,83.01
2022-11-24T16:31:33.169Z,83.88
2022-11-24T16:34:00.650Z,83.89
2022-11-24T16:36:28.344Z,83.15
2022-11-24T16:38:55.776Z,84.46
2022-11-24T16:41:23.149Z,84.42
2022-11-24T16:43:50.550Z,83.43
2022-11-24T16:46:20.274Z,83.79
2022-11-24T16:48:51.083Z,83.69
2022-11-24T16:51:20.202Z,83.85
2022-11-24T16:53:47.744Z,84.06
2022-11-24T16:56:16.412Z,87.56
2022-11-24T16:58:44.069Z,85.06
2022-11-24T17:01:14.352Z,84.37
2022-11-24T17:03:42.130Z,88.58
2022-11-24T17:06:12.851Z,86.99
2022-11-24T17:08:41.459Z,85.11
2022-11-24T17:11:09.834Z,84.44
2022-11-24T17:13:37.978Z,84.68
2022-11-24T17:16:06.326Z,83.97
2022-11-24T17:18:34.585Z,83.76
2022-11-24T17:21:09.262Z,83.94
2022-11-24T17:23:38.933Z,83.61
2022-11-24T17:26:08.203Z,83.16
2022-11-24T17:28:36.072Z,83.91
2022-11-24T17:31:07.707Z,84.22
2022-11-24T17:33:35.391Z,82.35
2022-11-24T17:36:03.621Z,85.21
2022-11-24T17:38:31.751Z,90.20
2022-11-24T17:41:00.744Z,90.99
2022-11-24T17:43:28.357Z,96.23
2022-11-24T17:45:56.788Z,92.69
2022-11-24T17:48:24.546Z,82.54
2022-11-24T17:50:59.913Z,82.50
2022-11-24T17:53:27.453Z,82.40
2022-11-24T17:55:54.899Z,82.21
2022-11-24T17:58:23.594Z,84.19
2022-11-24T18:00:52.876Z,83.53
2022-11-24T18:03:20.314Z,83.96
2022-11-24T18:05:47.971Z,84.85
2022-11-24T18:08:15.487Z,84.41
2022-11-24T18:10:42.905Z,83.86
2022-11-24T18:13:22.192Z,83.66
2022-11-24T18:16:01.733Z,84.25
2022-11-24T18:18:29.491Z,84.64
2022-11-24T18:20:58.155Z,84.78
2022-11-24T18:23:26.755Z,86.06
2022-11-24T18:25:55.143Z,86.39
2022-11-24T18:28:22.977Z,84.02
2022-11-24T18:30:50.524Z,85.33
2022-11-24T18:33:20.054Z,85.50
2022-11-24T18:35:56.496Z,82.87
2022-11-24T18:38:23.939Z,84.93
2022-11-24T18:40:54.148Z,84.43
2022-11-24T18:43:21.690Z,84.73
2022-11-24T18:45:49.329Z,85.04
2022-11-24T18:48:17.055Z,83.88
2022-11-24T18:50:50.722Z,85.59
2022-11-24T18:53:18.248Z,86.42
2022-11-24T18:55:55.040Z,86.60
2022-11-24T18:58:22.464Z,86.00
2022-11-24T19:00:50.012Z,88.88
2022-11-24T19:03:17.535Z,87.42
2022-11-24T19:05:46.459Z,87.29
2022-11-24T19:08:13.900Z,85.60
2022-11-24T19:10:41.436Z,84.56
2022-11-24T19:13:08.824Z,86.27
2022-11-24T19:15:36.711Z,86.10
2022-11-24T19:18:04.263Z,86.23
2022-11-24T19:20:31.678Z,88.53
2022-11-24T19:23:00.390Z,87.73
2022-11-24T19:25:27.856Z,88.02
2022-11-24T19:27:55.325Z,89.24
2022-11-24T19:30:22.736Z,87.33
2022-11-24T19:32:50.131Z,86.89
2022-11-24T19:35:17.854Z,86.66
2022-11-24T19:37:45.268Z,85.99
2022-11-24T19:40:15.184Z,86.11
2022-11-24T19:42:42.588Z,87.46
2022-11-24T19:45:10.919Z,86.64
2022-11-24T19:47:38.608Z,86.36
2022-11-24T19:50:10.401Z,86.77
2022-11-24T19:52:38.061Z,87.80
2022-11-24T19:55:06.279Z,87.68
2022-11-24T19:57:34.992Z,87.67
2022-11-24T20:00:02.720Z,87.66
2022-11-24T20:02:31.580Z,87.13
2022-11-24T20:04:59.196Z,87.83
2022-11-24T20:07:26.666Z,87.76
2022-11-24T20:09:54.143Z,85.88
2022-11-24T20:12:21.623Z,86.73
2022-11-24T20:14:50.359Z,87.22
2022-11-24T20:17:17.755Z,87.73
2022-11-24T20:19:45.138Z,87.12
2022-11-24T20:22:12.617Z,87.42
2022-11-24T20:24:40.121Z,87.91
2022-11-24T20:27:07.691Z,86.71
2022-11-24T20:29:35.167Z,86.86
2022-11-24T20:32:03.925Z,87.63
2022-11-24T20:34:31.417Z,88.63
2022-11-24T20:36:58.864Z,87.76
2022-11-24T20:39:28.293Z,87.93
2022-11-24T20:41:56.989Z,87.55
2022-11-24T20:44:26.550Z,86.94
2022-11-24T20:46:55.944Z,85.98
2022-11-24T20:49:25.058Z,86.65
2022-11-24T20:51:54.588Z,87.30
2022-11-24T20:54:22.725Z,88.88
2022-11-24T20:56:50.159Z,87.05
2022-11-24T20:59:21.703Z,88.75
2022-11-24T21:01:50.268Z,88.08
2022-11-24T21:04:20.080Z,87.31
2022-11-24T21:06:49.194Z,87.29
2022-11-24T21:09:17.282Z,86.73
2022-11-24T21:11:45.095Z,94.72
2022-11-24T21:14:13.170Z,92.34
2022-11-24T21:16:42.377Z,93.33
2022-11-24T21:19:12.984Z,87.09
2022-11-24T21:21:43.321Z,83.58
2022-11-24T21:24:14.475Z,78.98
2022-11-24T21:26:43.136Z,81.01
2022-11-24T21:29:12.981Z,81.86
2022-11-24T21:31:40.797Z,83.59
2022-11-24T21:34:09.125Z,90.55
2022-11-24T21:36:40.016Z,88.90
2022-11-24T21:39:07.626Z,86.51
2022-11-24T21:41:36.387Z,86.75
2022-11-24T21:44:04.011Z,86.12
2022-11-24T21:46:39.076Z,85.97
2022-11-24T21:49:09.947Z,85.93
2022-11-24T21:51:37.399Z,86.52
2022-11-24T21:54:05.586Z,85.76
2022-11-24T21:56:33.018Z,88.35
2022-11-24T21:59:01.766Z,86.75
2022-11-24T22:01:29.875Z,87.80
2022-11-24T22:03:57.326Z,86.00
2022-11-24T22:06:24.858Z,86.11
2022-11-24T22:08:52.388Z,87.06
2022-11-24T22:11:22.065Z,88.08
2022-11-24T22:13:49.994Z,87.83
2022-11-24T22:16:20.529Z,87.75
2022-11-24T22:18:48.706Z,87.60
2022-11-24T22:21:18.247Z,86.86
2022-11-24T22:23:46.268Z,87.55
2022-11-24T22:26:15.970Z,88.12
2022-11-24T22:28:44.639Z,87.29
2022-11-24T22:31:17.849Z,87.19
2022-11-24T22:33:47.107Z,87.52
2022-11-24T22:36:16.089Z,88.17
2022-11-24T22:38:44.265Z,87.51
2022-11-24T22:41:13.964Z,89.54
2022-11-24T22:43:43.515Z,88.13
2022-11-24T22:46:12.803Z,89.22
2022-11-24T22:48:41.318Z,87.71
2022-11-24T22:51:12.132Z,87.05
2022-11-24T22:53:40.138Z,86.93
2022-11-24T22:56:10.352Z,87.39
2022-11-24T22:58:38.460Z,88.13
2022-11-24T23:01:06.679Z,87.83
2022-11-24T23:03:35.149Z,87.79
2022-11-24T23:06:03.283Z,87.42
2022-11-24T23:08:33.917Z,88.12
2022-11-24T23:11:02.840Z,87.77
2022-11-24T23:13:30.262Z,86.60
2022-11-24T23:16:01.957Z,87.51
2022-11-24T23:18:29.626Z,86.44
2022-11-24T23:20:57.338Z,86.72
2022-11-24T23:23:24.721Z,86.11
2022-11-24T23:25:53.449Z,86.80
2022-11-24T23:28:20.825Z,88.69
2022-11-24T23:30:48.233Z,90.59
2022-11-24T23:33:15.634Z,89.10
2022-11-24T23:35:43.096Z,88.85
2022-11-24T23:38:10.567Z,88.39
2022-11-24T23:40:37.959Z,86.99
2022-11-24T23:43:06.710Z,87.11
2022-11-24T23:45:34.180Z,87.62
2022-11-24T23:48:02.284Z,86.45
2022-11-24T23:50:30.042Z,87.02
2022-11-24T23:52:57.465Z,88.63
2022-11-24T23:55:24.919Z,86.82
2022-11-24T23:57:52.383Z,87.85
